YV367 KMCO-KORL
Flight info
| Callsign | YV367 |
|---|---|
| Flight time | N/A |
| Altitude | 6300 |
| Route | ROSTR |
| Aircraft | MD83/M-OACI/2400 |
Departure
| Time | N/A |
|---|---|
| Airport | Orlando International Airport (KMCO) |
Arrival
| Time | 2026-04-22 00:34 |
|---|---|
| Airport | Orlando Executive Airport (KORL) |
| Time | Latitude | Longitude | Altitude | Speed | Heading |
|---|---|---|---|---|---|
| 2026-04-22 00:34 | 28.42813 | -81.30325 | 101 ft | 0 kts | 179° |
| 2026-04-22 00:37 | 28.42812 | -81.30325 | 101 ft | 0 kts | 180° |
| 2026-04-22 00:44 | 28.42818 | -81.30325 | 101 ft | 2 kts | 180° |
| 2026-04-22 00:45 | 28.42835 | -81.30325 | 101 ft | 3 kts | 180° |
| 2026-04-22 00:45 | 28.42849 | -81.30325 | 101 ft | 0 kts | 178° |
| 2026-04-22 00:45 | 28.42838 | -81.30328 | 101 ft | 9 kts | 208° |
| 2026-04-22 00:45 | 28.42832 | -81.30395 | 101 ft | 0 kts | 297° |
| 2026-04-22 00:46 | 28.42845 | -81.30414 | 101 ft | 11 kts | 315° |
| 2026-04-22 00:46 | 28.42927 | -81.30392 | 101 ft | 20 kts | 41° |
| 2026-04-22 00:46 | 28.43009 | -81.30233 | 101 ft | 21 kts | 72° |
| 2026-04-22 00:46 | 28.43028 | -81.30120 | 101 ft | 10 kts | 87° |
| 2026-04-22 00:47 | 28.43029 | -81.30049 | 101 ft | 15 kts | 92° |
| 2026-04-22 00:47 | 28.42974 | -81.29906 | 101 ft | 16 kts | 134° |
| 2026-04-22 00:47 | 28.42936 | -81.29852 | 101 ft | 9 kts | 112° |
| 2026-04-22 00:48 | 28.42930 | -81.29819 | 101 ft | 5 kts | 95° |
| 2026-04-22 00:48 | 28.42929 | -81.29806 | 101 ft | 1 kts | 90° |
| 2026-04-22 00:49 | 28.42931 | -81.29768 | 101 ft | 3 kts | 85° |
| 2026-04-22 00:49 | 28.42921 | -81.29707 | 101 ft | 17 kts | 110° |
| 2026-04-22 00:50 | 28.42844 | -81.29627 | 101 ft | 10 kts | 166° |
| 2026-04-22 00:51 | 28.42816 | -81.29602 | 101 ft | 1 kts | 84° |
| 2026-04-22 00:51 | 28.42838 | -81.29584 | 101 ft | 11 kts | 6° |
| 2026-04-22 00:51 | 28.43052 | -81.29580 | 101 ft | 63 kts | 0° |
| 2026-04-22 00:51 | 28.43497 | -81.29578 | 137 ft | 96 kts | 0° |
| 2026-04-22 00:53 | 28.43933 | -81.29578 | 244 ft | 104 kts | 0° |
| 2026-04-22 00:53 | 28.44561 | -81.29576 | 359 ft | 115 kts | 0° |
| 2026-04-22 00:53 | 28.44784 | -81.29576 | 418 ft | 114 kts | 0° |